Airport details for: EKYT (Denmark)

Metar

EKYT 250920Z 31013KT 280V340 CAVOK 09/03 Q1028

General details

ICAO: EKYT
IATA: AAL
Name (city): Aalborg
Major:
Country: Denmark
vACC: VATSIM Scandinavia
Description:

Aalborg airport is the third largest airport in Denmark, with around 1.5 mio pax per year, and was built as the first provincial airport in Denmark.

There are two runways in Aalborg, both around 2.600 m. long, and companies as Norwegian and SAS has daily operation in the airport with domestic and foreign flights.

In 2013, Aalborg airport initiated a rebuilt terminal, so there are 12 gates and 9 stands now.

Scenery links:
FS9 scenery:
FSX/P3D scenery:
XP scenery:
Elevation: 10 ft.
Transition altitude: 3000 ft.
MSA: 8700 ft.
Latitude: 57.092789
Longitude: 9.849164
EKYT Charts
EKYT Notams
EKYT Online stations

Runways

Number Course Length Elevation Lat Lon ILS ILS freq ILS FAC GP
08L 82° 8707ft / 2654 m 8ft 57.093714 9.833381 109.9 82° 2.75°
08R 82° 8363ft / 2549 m 7ft 57.091908 9.835475 - - 3.0°
26L 262° 8363ft / 2549 m 10ft 57.094586 9.877245 - - 3.0°
26R 262° 8707ft / 2654 m 10ft 57.096511 9.876875 109.9 262° 2.75°